Dutch Harbor, AK

12:49 PM AKDT on March 29, 2015 (GMT -0800)
Dutch Harbor | | Change Station
CLOSE
Current Station
Airport
Location: Dutch Harbor,
Elevation: 13 ft
Nearby Weather Stations

Elev 13 ft 53.90 °N, 166.54 °W | Updated 14 minutes ago

Overcast
Overcast
37 °F
Feels Like 28 °F
N
16
Wind Variable Wind from NW

Today
High -- | Low -- °F
--% Chance of Precip.
Yesterday
High -- | Low -- °F
Precip. -- in
8:46 AM 9:36 PM
Waxing Gibbous, 74% visible
Pressure 29.56 in
Visibility 9.0 miles
Clouds Mostly Cloudy 1600 ft
Overcast 2100 ft
Windchill 28 °F
Dew Point 30 °F
Humidity 75%
Rainfall 0.18 in
Snow Depth Not available.
UV 1 out of 12
Pollen Not available.
Air Quality Not available.
Flu Activity Not available.
SPECI PADU 292035Z 32014KT 9SM BKN016 OVC021 03/M01 A2956 RMK AO2 RAE11 CS P0000

More Conditions Fewer Conditions

Pressure 29.56 in
Visibility 9.0 miles
Clouds Mostly Cloudy 1600 ft
Overcast 2100 ft
Windchill 28 °F
Dew Point 30 °F
Humidity 75%
Rainfall 0.18 in
Snow Depth Not available.
UV 1 out of 12
Pollen Not available.
Air Quality Not available.
Flu Activity Not available.
SPECI PADU 292035Z 32014KT 9SM BKN016 OVC021 03/M01 A2956 RMK AO2 RAE11 CS P0000

More Conditions Fewer Conditions

10-Day Weather Forecast

Almanac

Astronomy

Mar. 29, 2015 Rise Set
Actual Time
Civil Twilight
Nautical Twilight
Astronomical Twilight
Moon
Length of Visible Light
Length of Day
Tomorrow will be .
, % of the Moon is Illuminated

Today's Extremes

State Highs State Lows

Community

WunderPhotos

Upload Photos

1,809,347 photos uploaded!

WunderBlogs® & News

Nearby

Air Quality

  Air Quality AQ Index Pollutant
Not available.

Snow Depth

Station Depth Elevation

Earthquake Activity

City Distance Mag. Time & Date
Minimum magnitude displayed is 2.5.

Coastal Water Temperatures

Place Temperature

Stations

Nearby Weather Stations

Station Location Temp. Windchill Dew Point Humidity Wind Precip. Elev Updated Type